sensor_id;sensor_type;location;lat;lon;timestamp;pressure;altitude;pressure_sealevel;temperature
15062;BMP180;7630;50.306;8.566;2023-04-24T00:01:10;96594.00;;;12.80
15062;BMP180;7630;50.306;8.566;2023-04-24T00:05:14;96586.00;;;12.30
15062;BMP180;7630;50.306;8.566;2023-04-24T00:09:15;96587.00;;;12.40
15062;BMP180;7630;50.306;8.566;2023-04-24T00:13:16;96597.00;;;12.80
15062;BMP180;7630;50.306;8.566;2023-04-24T00:17:18;96592.00;;;12.80
15062;BMP180;7630;50.306;8.566;2023-04-24T00:21:22;96585.00;;;12.60
15062;BMP180;7630;50.306;8.566;2023-04-24T00:25:25;96581.00;;;12.50
15062;BMP180;7630;50.306;8.566;2023-04-24T00:29:26;96594.00;;;12.90
15062;BMP180;7630;50.306;8.566;2023-04-24T00:33:27;96581.00;;;12.80
15062;BMP180;7630;50.306;8.566;2023-04-24T00:37:29;96588.00;;;12.70
15062;BMP180;7630;50.306;8.566;2023-04-24T00:41:30;96578.00;;;11.70
15062;BMP180;7630;50.306;8.566;2023-04-24T00:45:31;96590.00;;;12.40
15062;BMP180;7630;50.306;8.566;2023-04-24T00:49:32;96579.00;;;12.40
15062;BMP180;7630;50.306;8.566;2023-04-24T00:53:33;96572.00;;;12.90
15062;BMP180;7630;50.306;8.566;2023-04-24T00:57:34;96560.00;;;11.80
15062;BMP180;7630;50.306;8.566;2023-04-24T01:01:36;96560.00;;;11.70
15062;BMP180;7630;50.306;8.566;2023-04-24T01:05:37;96552.00;;;11.80
15062;BMP180;7630;50.306;8.566;2023-04-24T01:09:40;96554.00;;;11.70
15062;BMP180;7630;50.306;8.566;2023-04-24T01:13:42;96574.00;;;11.70
15062;BMP180;7630;50.306;8.566;2023-04-24T01:17:44;96550.00;;;11.70
15062;BMP180;7630;50.306;8.566;2023-04-24T01:21:47;96541.00;;;11.90
15062;BMP180;7630;50.306;8.566;2023-04-24T01:25:49;96547.00;;;11.40
15062;BMP180;7630;50.306;8.566;2023-04-24T01:29:51;96548.00;;;11.90
15062;BMP180;7630;50.306;8.566;2023-04-24T01:33:53;96534.00;;;11.70
15062;BMP180;7630;50.306;8.566;2023-04-24T01:37:55;96553.00;;;11.50
15062;BMP180;7630;50.306;8.566;2023-04-24T01:41:56;96548.00;;;12.30
15062;BMP180;7630;50.306;8.566;2023-04-24T01:45:57;96554.00;;;12.10
15062;BMP180;7630;50.306;8.566;2023-04-24T01:49:59;96551.00;;;12.10
15062;BMP180;7630;50.306;8.566;2023-04-24T01:54:00;96545.00;;;12.10
15062;BMP180;7630;50.306;8.566;2023-04-24T01:58:01;96567.00;;;11.40
15062;BMP180;7630;50.306;8.566;2023-04-24T02:02:03;96548.00;;;11.80
15062;BMP180;7630;50.306;8.566;2023-04-24T02:06:04;96546.00;;;12.00
15062;BMP180;7630;50.306;8.566;2023-04-24T02:10:06;96545.00;;;12.00
15062;BMP180;7630;50.306;8.566;2023-04-24T02:14:08;96555.00;;;11.60
15062;BMP180;7630;50.306;8.566;2023-04-24T02:18:09;96554.00;;;11.50
15062;BMP180;7630;50.306;8.566;2023-04-24T02:22:10;96559.00;;;11.20
15062;BMP180;7630;50.306;8.566;2023-04-24T02:26:12;96557.00;;;11.50
15062;BMP180;7630;50.306;8.566;2023-04-24T02:30:13;96563.00;;;11.60
15062;BMP180;7630;50.306;8.566;2023-04-24T02:34:14;96563.00;;;12.30
15062;BMP180;7630;50.306;8.566;2023-04-24T02:38:17;96559.00;;;12.70
15062;BMP180;7630;50.306;8.566;2023-04-24T02:42:18;96552.00;;;13.20
15062;BMP180;7630;50.306;8.566;2023-04-24T02:46:19;96542.00;;;13.20
15062;BMP180;7630;50.306;8.566;2023-04-24T02:50:20;96546.00;;;13.10
15062;BMP180;7630;50.306;8.566;2023-04-24T02:54:21;96541.00;;;12.50
15062;BMP180;7630;50.306;8.566;2023-04-24T02:58:22;96549.00;;;12.50
15062;BMP180;7630;50.306;8.566;2023-04-24T03:02:24;96536.00;;;11.50
15062;BMP180;7630;50.306;8.566;2023-04-24T03:06:25;96554.00;;;11.70
15062;BMP180;7630;50.306;8.566;2023-04-24T03:10:27;96559.00;;;12.30
15062;BMP180;7630;50.306;8.566;2023-04-24T03:14:28;96553.00;;;12.20
15062;BMP180;7630;50.306;8.566;2023-04-24T03:18:34;96555.00;;;11.60
15062;BMP180;7630;50.306;8.566;2023-04-24T03:22:35;96555.00;;;11.30
15062;BMP180;7630;50.306;8.566;2023-04-24T03:26:37;96569.00;;;12.30
15062;BMP180;7630;50.306;8.566;2023-04-24T03:30:38;96567.00;;;12.00
15062;BMP180;7630;50.306;8.566;2023-04-24T03:34:39;96577.00;;;12.10
15062;BMP180;7630;50.306;8.566;2023-04-24T03:38:40;96585.00;;;11.80
15062;BMP180;7630;50.306;8.566;2023-04-24T03:42:41;96579.00;;;11.70
15062;BMP180;7630;50.306;8.566;2023-04-24T03:46:42;96579.00;;;12.20
15062;BMP180;7630;50.306;8.566;2023-04-24T03:50:43;96583.00;;;11.50
15062;BMP180;7630;50.306;8.566;2023-04-24T03:54:45;96585.00;;;11.30
15062;BMP180;7630;50.306;8.566;2023-04-24T03:58:46;96599.00;;;11.10
15062;BMP180;7630;50.306;8.566;2023-04-24T04:02:47;96587.00;;;11.20
15062;BMP180;7630;50.306;8.566;2023-04-24T04:06:49;96608.00;;;11.50
15062;BMP180;7630;50.306;8.566;2023-04-24T04:10:50;96605.00;;;10.80
15062;BMP180;7630;50.306;8.566;2023-04-24T04:14:51;96616.00;;;10.80
15062;BMP180;7630;50.306;8.566;2023-04-24T04:18:52;96619.00;;;9.80
15062;BMP180;7630;50.306;8.566;2023-04-24T04:22:53;96621.00;;;10.30
15062;BMP180;7630;50.306;8.566;2023-04-24T04:26:54;96620.00;;;11.10
15062;BMP180;7630;50.306;8.566;2023-04-24T04:30:57;96621.00;;;11.20
15062;BMP180;7630;50.306;8.566;2023-04-24T04:34:59;96621.00;;;11.10
15062;BMP180;7630;50.306;8.566;2023-04-24T04:39:03;96623.00;;;10.80
15062;BMP180;7630;50.306;8.566;2023-04-24T04:43:04;96635.00;;;9.80
15062;BMP180;7630;50.306;8.566;2023-04-24T04:47:07;96632.00;;;11.20
15062;BMP180;7630;50.306;8.566;2023-04-24T04:51:09;96609.00;;;10.80
15062;BMP180;7630;50.306;8.566;2023-04-24T04:55:10;96633.00;;;9.70
15062;BMP180;7630;50.306;8.566;2023-04-24T04:59:14;96638.00;;;10.90
15062;BMP180;7630;50.306;8.566;2023-04-24T05:03:15;96645.00;;;11.10
15062;BMP180;7630;50.306;8.566;2023-04-24T05:07:17;96647.00;;;10.30
15062;BMP180;7630;50.306;8.566;2023-04-24T05:11:19;96669.00;;;10.80
15062;BMP180;7630;50.306;8.566;2023-04-24T05:15:20;96679.00;;;10.30
15062;BMP180;7630;50.306;8.566;2023-04-24T05:19:21;96689.00;;;10.00
15062;BMP180;7630;50.306;8.566;2023-04-24T05:23:22;96688.00;;;10.50
15062;BMP180;7630;50.306;8.566;2023-04-24T05:27:24;96695.00;;;10.50
15062;BMP180;7630;50.306;8.566;2023-04-24T05:31:25;96686.00;;;11.20
15062;BMP180;7630;50.306;8.566;2023-04-24T05:35:27;96687.00;;;11.10
15062;BMP180;7630;50.306;8.566;2023-04-24T05:39:28;96692.00;;;12.00
15062;BMP180;7630;50.306;8.566;2023-04-24T05:43:29;96699.00;;;10.70
15062;BMP180;7630;50.306;8.566;2023-04-24T05:47:30;96694.00;;;11.30
15062;BMP180;7630;50.306;8.566;2023-04-24T05:51:31;96532.00;;;10.50
15062;BMP180;7630;50.306;8.566;2023-04-24T05:55:32;96714.00;;;10.50
15062;BMP180;7630;50.306;8.566;2023-04-24T05:59:36;96712.00;;;9.80
15062;BMP180;7630;50.306;8.566;2023-04-24T06:03:38;96716.00;;;10.90
15062;BMP180;7630;50.306;8.566;2023-04-24T06:07:40;96727.00;;;10.00
15062;BMP180;7630;50.306;8.566;2023-04-24T06:11:41;96727.00;;;10.30
15062;BMP180;7630;50.306;8.566;2023-04-24T06:15:43;96721.00;;;9.70
15062;BMP180;7630;50.306;8.566;2023-04-24T06:19:45;96731.00;;;9.80
15062;BMP180;7630;50.306;8.566;2023-04-24T06:23:46;96727.00;;;10.30
15062;BMP180;7630;50.306;8.566;2023-04-24T06:27:48;96731.00;;;10.80
15062;BMP180;7630;50.306;8.566;2023-04-24T06:31:49;96727.00;;;10.80
15062;BMP180;7630;50.306;8.566;2023-04-24T06:35:50;96732.00;;;10.00
15062;BMP180;7630;50.306;8.566;2023-04-24T06:39:51;96735.00;;;10.60
15062;BMP180;7630;50.306;8.566;2023-04-24T06:43:52;96723.00;;;10.90
15062;BMP180;7630;50.306;8.566;2023-04-24T06:47:54;96722.00;;;10.30
15062;BMP180;7630;50.306;8.566;2023-04-24T06:51:55;96725.00;;;11.00
15062;BMP180;7630;50.306;8.566;2023-04-24T06:55:56;96729.00;;;10.70
15062;BMP180;7630;50.306;8.566;2023-04-24T06:59:57;96735.00;;;10.90
15062;BMP180;7630;50.306;8.566;2023-04-24T07:04:00;96734.00;;;11.40
15062;BMP180;7630;50.306;8.566;2023-04-24T07:08:02;96723.00;;;11.50
15062;BMP180;7630;50.306;8.566;2023-04-24T07:12:04;96723.00;;;11.20
15062;BMP180;7630;50.306;8.566;2023-04-24T07:16:05;96732.00;;;11.60
15062;BMP180;7630;50.306;8.566;2023-04-24T07:20:07;96740.00;;;11.50
15062;BMP180;7630;50.306;8.566;2023-04-24T07:24:10;96731.00;;;11.20
15062;BMP180;7630;50.306;8.566;2023-04-24T07:28:12;96732.00;;;11.60
15062;BMP180;7630;50.306;8.566;2023-04-24T07:32:13;96724.00;;;11.10
15062;BMP180;7630;50.306;8.566;2023-04-24T07:36:15;96727.00;;;11.60
15062;BMP180;7630;50.306;8.566;2023-04-24T07:40:18;96717.00;;;11.70
15062;BMP180;7630;50.306;8.566;2023-04-24T07:44:19;96712.00;;;11.80
15062;BMP180;7630;50.306;8.566;2023-04-24T07:48:20;96728.00;;;11.50
15062;BMP180;7630;50.306;8.566;2023-04-24T07:52:23;96713.00;;;12.20
15062;BMP180;7630;50.306;8.566;2023-04-24T07:56:24;96715.00;;;12.50
15062;BMP180;7630;50.306;8.566;2023-04-24T08:00:28;96731.00;;;12.20
15062;BMP180;7630;50.306;8.566;2023-04-24T08:04:29;96728.00;;;13.20
15062;BMP180;7630;50.306;8.566;2023-04-24T08:08:30;96750.00;;;13.30
15062;BMP180;7630;50.306;8.566;2023-04-24T08:12:31;96747.00;;;12.80
15062;BMP180;7630;50.306;8.566;2023-04-24T08:16:33;96755.00;;;11.80
15062;BMP180;7630;50.306;8.566;2023-04-24T08:20:34;96746.00;;;12.40
15062;BMP180;7630;50.306;8.566;2023-04-24T08:24:36;96736.00;;;12.00
15062;BMP180;7630;50.306;8.566;2023-04-24T08:28:38;96753.00;;;12.20
15062;BMP180;7630;50.306;8.566;2023-04-24T08:32:39;96760.00;;;11.70
15062;BMP180;7630;50.306;8.566;2023-04-24T08:36:40;96779.00;;;11.90
15062;BMP180;7630;50.306;8.566;2023-04-24T08:40:43;96778.00;;;11.90
15062;BMP180;7630;50.306;8.566;2023-04-24T08:44:48;96790.00;;;11.80
15062;BMP180;7630;50.306;8.566;2023-04-24T08:48:51;96798.00;;;11.30
15062;BMP180;7630;50.306;8.566;2023-04-24T08:52:53;96799.00;;;11.60
15062;BMP180;7630;50.306;8.566;2023-04-24T08:56:59;96800.00;;;11.80
15062;BMP180;7630;50.306;8.566;2023-04-24T09:00:59;96792.00;;;12.00
15062;BMP180;7630;50.306;8.566;2023-04-24T09:05:02;96804.00;;;12.20
15062;BMP180;7630;50.306;8.566;2023-04-24T09:09:04;96807.00;;;12.00
15062;BMP180;7630;50.306;8.566;2023-04-24T09:13:06;96817.00;;;12.00
15062;BMP180;7630;50.306;8.566;2023-04-24T09:17:09;96807.00;;;11.70
15062;BMP180;7630;50.306;8.566;2023-04-24T09:21:11;96807.00;;;11.60
15062;BMP180;7630;50.306;8.566;2023-04-24T09:25:12;96815.00;;;12.50
15062;BMP180;7630;50.306;8.566;2023-04-24T09:29:15;96814.00;;;11.90
15062;BMP180;7630;50.306;8.566;2023-04-24T09:33:17;96820.00;;;11.80
15062;BMP180;7630;50.306;8.566;2023-04-24T09:37:28;96827.00;;;12.20
15062;BMP180;7630;50.306;8.566;2023-04-24T09:41:32;96836.00;;;12.20
15062;BMP180;7630;50.306;8.566;2023-04-24T09:45:38;96828.00;;;12.70
15062;BMP180;7630;50.306;8.566;2023-04-24T09:49:40;96840.00;;;11.60
15062;BMP180;7630;50.306;8.566;2023-04-24T09:53:48;96852.00;;;12.30
15062;BMP180;7630;50.306;8.566;2023-04-24T09:57:56;96842.00;;;12.30
15062;BMP180;7630;50.306;8.566;2023-04-24T10:01:59;96856.00;;;13.10
15062;BMP180;7630;50.306;8.566;2023-04-24T10:06:02;96863.00;;;12.80
15062;BMP180;7630;50.306;8.566;2023-04-24T10:10:05;96872.00;;;12.30
15062;BMP180;7630;50.306;8.566;2023-04-24T10:14:09;96883.00;;;11.60
15062;BMP180;7630;50.306;8.566;2023-04-24T10:18:11;96883.00;;;12.30
15062;BMP180;7630;50.306;8.566;2023-04-24T10:22:14;96899.00;;;13.00
15062;BMP180;7630;50.306;8.566;2023-04-24T10:26:16;96895.00;;;12.20
15062;BMP180;7630;50.306;8.566;2023-04-24T10:30:19;96895.00;;;11.90
15062;BMP180;7630;50.306;8.566;2023-04-24T10:34:21;96886.00;;;12.70
15062;BMP180;7630;50.306;8.566;2023-04-24T10:38:26;96896.00;;;12.90
15062;BMP180;7630;50.306;8.566;2023-04-24T10:42:28;96871.00;;;13.10
15062;BMP180;7630;50.306;8.566;2023-04-24T10:46:30;96899.00;;;13.50
15062;BMP180;7630;50.306;8.566;2023-04-24T10:50:48;96889.00;;;12.70
15062;BMP180;7630;50.306;8.566;2023-04-24T10:54:50;96906.00;;;12.30
15062;BMP180;7630;50.306;8.566;2023-04-24T10:58:53;96891.00;;;11.40
15062;BMP180;7630;50.306;8.566;2023-04-24T11:02:54;96921.00;;;10.50
15062;BMP180;7630;50.306;8.566;2023-04-24T11:06:57;96927.00;;;11.10
15062;BMP180;7630;50.306;8.566;2023-04-24T11:11:00;96938.00;;;10.60
15062;BMP180;7630;50.306;8.566;2023-04-24T11:15:02;96952.00;;;9.40
15062;BMP180;7630;50.306;8.566;2023-04-24T11:23:18;96965.00;;;10.70
15062;BMP180;7630;50.306;8.566;2023-04-24T11:27:21;96949.00;;;10.20
15062;BMP180;7630;50.306;8.566;2023-04-24T11:31:40;96962.00;;;10.20
15062;BMP180;7630;50.306;8.566;2023-04-24T11:35:42;96953.00;;;10.60
15062;BMP180;7630;50.306;8.566;2023-04-24T11:39:44;96968.00;;;10.60
15062;BMP180;7630;50.306;8.566;2023-04-24T11:43:45;96981.00;;;10.30
15062;BMP180;7630;50.306;8.566;2023-04-24T11:47:47;96992.00;;;11.70
15062;BMP180;7630;50.306;8.566;2023-04-24T11:51:48;96981.00;;;13.10
15062;BMP180;7630;50.306;8.566;2023-04-24T11:55:51;96982.00;;;11.90
15062;BMP180;7630;50.306;8.566;2023-04-24T11:59:52;96980.00;;;12.30
15062;BMP180;7630;50.306;8.566;2023-04-24T12:03:59;96981.00;;;12.30
15062;BMP180;7630;50.306;8.566;2023-04-24T12:07:59;96979.00;;;11.20
15062;BMP180;7630;50.306;8.566;2023-04-24T12:12:00;96984.00;;;12.00
15062;BMP180;7630;50.306;8.566;2023-04-24T12:16:03;96984.00;;;12.20
15062;BMP180;7630;50.306;8.566;2023-04-24T12:20:07;96979.00;;;12.30
15062;BMP180;7630;50.306;8.566;2023-04-24T12:24:08;96988.00;;;13.50
15062;BMP180;7630;50.306;8.566;2023-04-24T12:28:11;96978.00;;;13.00
15062;BMP180;7630;50.306;8.566;2023-04-24T12:32:17;96997.00;;;13.20
15062;BMP180;7630;50.306;8.566;2023-04-24T12:36:18;97005.00;;;13.10
15062;BMP180;7630;50.306;8.566;2023-04-24T12:40:22;97008.00;;;10.60
15062;BMP180;7630;50.306;8.566;2023-04-24T12:44:32;97036.00;;;10.10
15062;BMP180;7630;50.306;8.566;2023-04-24T12:48:35;97040.00;;;10.20
15062;BMP180;7630;50.306;8.566;2023-04-24T12:52:37;97053.00;;;10.20
15062;BMP180;7630;50.306;8.566;2023-04-24T12:56:39;97046.00;;;10.80
15062;BMP180;7630;50.306;8.566;2023-04-24T13:00:41;97065.00;;;11.30
15062;BMP180;7630;50.306;8.566;2023-04-24T13:04:45;97052.00;;;11.90
15062;BMP180;7630;50.306;8.566;2023-04-24T13:08:47;97045.00;;;12.60
15062;BMP180;7630;50.306;8.566;2023-04-24T13:12:49;97049.00;;;11.80
15062;BMP180;7630;50.306;8.566;2023-04-24T13:16:50;97047.00;;;12.50
15062;BMP180;7630;50.306;8.566;2023-04-24T13:20:52;97036.00;;;13.20
15062;BMP180;7630;50.306;8.566;2023-04-24T13:24:53;97027.00;;;13.60
15062;BMP180;7630;50.306;8.566;2023-04-24T13:28:55;97028.00;;;13.30
15062;BMP180;7630;50.306;8.566;2023-04-24T13:32:56;97039.00;;;12.90
15062;BMP180;7630;50.306;8.566;2023-04-24T13:36:58;97054.00;;;11.30
15062;BMP180;7630;50.306;8.566;2023-04-24T13:41:00;97051.00;;;11.30
15062;BMP180;7630;50.306;8.566;2023-04-24T13:45:01;97045.00;;;12.00
15062;BMP180;7630;50.306;8.566;2023-04-24T13:49:04;97037.00;;;12.10
15062;BMP180;7630;50.306;8.566;2023-04-24T13:53:05;97033.00;;;12.60
15062;BMP180;7630;50.306;8.566;2023-04-24T13:57:06;97025.00;;;11.50
15062;BMP180;7630;50.306;8.566;2023-04-24T14:01:08;97032.00;;;11.30
15062;BMP180;7630;50.306;8.566;2023-04-24T14:05:09;96879.00;;;12.00
15062;BMP180;7630;50.306;8.566;2023-04-24T14:09:11;97034.00;;;13.90
15062;BMP180;7630;50.306;8.566;2023-04-24T14:13:13;97008.00;;;14.70
15062;BMP180;7630;50.306;8.566;2023-04-24T14:17:15;97013.00;;;14.80
15062;BMP180;7630;50.306;8.566;2023-04-24T14:21:16;97022.00;;;14.30
15062;BMP180;7630;50.306;8.566;2023-04-24T14:25:17;97025.00;;;13.40
15062;BMP180;7630;50.306;8.566;2023-04-24T14:29:18;97028.00;;;12.70
15062;BMP180;7630;50.306;8.566;2023-04-24T14:33:20;97028.00;;;12.70
15062;BMP180;7630;50.306;8.566;2023-04-24T14:37:21;97038.00;;;11.80
15062;BMP180;7630;50.306;8.566;2023-04-24T14:41:22;97054.00;;;11.90
15062;BMP180;7630;50.306;8.566;2023-04-24T14:45:24;97058.00;;;11.10
15062;BMP180;7630;50.306;8.566;2023-04-24T14:49:26;97055.00;;;11.00
15062;BMP180;7630;50.306;8.566;2023-04-24T14:53:27;97058.00;;;11.50
15062;BMP180;7630;50.306;8.566;2023-04-24T14:57:29;97057.00;;;11.60
15062;BMP180;7630;50.306;8.566;2023-04-24T15:01:30;97055.00;;;13.00
15062;BMP180;7630;50.306;8.566;2023-04-24T15:05:31;97042.00;;;14.90
15062;BMP180;7630;50.306;8.566;2023-04-24T15:09:32;97048.00;;;14.30
15062;BMP180;7630;50.306;8.566;2023-04-24T15:13:34;97055.00;;;14.80
15062;BMP180;7630;50.306;8.566;2023-04-24T15:17:35;97050.00;;;13.00
15062;BMP180;7630;50.306;8.566;2023-04-24T15:21:37;97058.00;;;13.80
15062;BMP180;7630;50.306;8.566;2023-04-24T15:25:38;97060.00;;;14.30
15062;BMP180;7630;50.306;8.566;2023-04-24T15:29:39;97073.00;;;14.00
15062;BMP180;7630;50.306;8.566;2023-04-24T15:33:41;97061.00;;;13.30
15062;BMP180;7630;50.306;8.566;2023-04-24T15:37:42;97062.00;;;13.50
15062;BMP180;7630;50.306;8.566;2023-04-24T15:41:43;97059.00;;;13.10
15062;BMP180;7630;50.306;8.566;2023-04-24T15:45:44;97053.00;;;13.40
15062;BMP180;7630;50.306;8.566;2023-04-24T15:49:45;97067.00;;;13.20
15062;BMP180;7630;50.306;8.566;2023-04-24T15:53:46;97057.00;;;13.30
15062;BMP180;7630;50.306;8.566;2023-04-24T15:57:48;97056.00;;;13.60
15062;BMP180;7630;50.306;8.566;2023-04-24T16:01:49;97061.00;;;13.20
15062;BMP180;7630;50.306;8.566;2023-04-24T16:05:52;97062.00;;;12.10
15062;BMP180;7630;50.306;8.566;2023-04-24T16:09:53;97083.00;;;12.80
15062;BMP180;7630;50.306;8.566;2023-04-24T16:13:54;97084.00;;;13.70
15062;BMP180;7630;50.306;8.566;2023-04-24T16:17:55;97081.00;;;14.10
15062;BMP180;7630;50.306;8.566;2023-04-24T16:21:57;97085.00;;;13.30
15062;BMP180;7630;50.306;8.566;2023-04-24T16:25:58;97080.00;;;14.80
15062;BMP180;7630;50.306;8.566;2023-04-24T16:30:00;97083.00;;;14.50
15062;BMP180;7630;50.306;8.566;2023-04-24T16:34:03;97046.00;;;14.30
15062;BMP180;7630;50.306;8.566;2023-04-24T16:38:03;97075.00;;;14.80
15062;BMP180;7630;50.306;8.566;2023-04-24T16:42:05;97114.00;;;15.30
15062;BMP180;7630;50.306;8.566;2023-04-24T16:46:07;97106.00;;;15.10
15062;BMP180;7630;50.306;8.566;2023-04-24T16:50:08;97113.00;;;14.50
15062;BMP180;7630;50.306;8.566;2023-04-24T16:54:10;97123.00;;;11.30
15062;BMP180;7630;50.306;8.566;2023-04-24T16:58:11;97116.00;;;10.90
15062;BMP180;7630;50.306;8.566;2023-04-24T17:02:12;97108.00;;;11.60
15062;BMP180;7630;50.306;8.566;2023-04-24T17:06:14;97109.00;;;11.70
15062;BMP180;7630;50.306;8.566;2023-04-24T17:10:15;97114.00;;;12.60
15062;BMP180;7630;50.306;8.566;2023-04-24T17:14:16;97114.00;;;11.80
15062;BMP180;7630;50.306;8.566;2023-04-24T17:18:17;97120.00;;;12.00
15062;BMP180;7630;50.306;8.566;2023-04-24T17:22:19;97113.00;;;12.30
15062;BMP180;7630;50.306;8.566;2023-04-24T17:26:20;97105.00;;;11.40
15062;BMP180;7630;50.306;8.566;2023-04-24T17:34:37;97115.00;;;12.60
15062;BMP180;7630;50.306;8.566;2023-04-24T17:38:38;97114.00;;;12.70
15062;BMP180;7630;50.306;8.566;2023-04-24T17:42:39;97117.00;;;12.20
15062;BMP180;7630;50.306;8.566;2023-04-24T17:46:42;97110.00;;;12.70
15062;BMP180;7630;50.306;8.566;2023-04-24T17:50:44;97115.00;;;13.20
15062;BMP180;7630;50.306;8.566;2023-04-24T17:54:45;97106.00;;;13.20
15062;BMP180;7630;50.306;8.566;2023-04-24T17:58:46;97106.00;;;13.20
15062;BMP180;7630;50.306;8.566;2023-04-24T18:02:50;97108.00;;;12.80
15062;BMP180;7630;50.306;8.566;2023-04-24T18:06:53;97101.00;;;12.70
15062;BMP180;7630;50.306;8.566;2023-04-24T18:10:54;97114.00;;;13.10
15062;BMP180;7630;50.306;8.566;2023-04-24T18:14:55;97121.00;;;13.00
15062;BMP180;7630;50.306;8.566;2023-04-24T18:18:58;97120.00;;;12.10
15062;BMP180;7630;50.306;8.566;2023-04-24T18:23:00;97120.00;;;13.10
15062;BMP180;7630;50.306;8.566;2023-04-24T18:27:02;97127.00;;;13.40
15062;BMP180;7630;50.306;8.566;2023-04-24T18:31:04;97112.00;;;13.60
15062;BMP180;7630;50.306;8.566;2023-04-24T18:35:07;97128.00;;;13.60
15062;BMP180;7630;50.306;8.566;2023-04-24T18:39:08;97131.00;;;13.60
15062;BMP180;7630;50.306;8.566;2023-04-24T18:43:09;97135.00;;;13.60
15062;BMP180;7630;50.306;8.566;2023-04-24T18:47:11;97144.00;;;13.80
15062;BMP180;7630;50.306;8.566;2023-04-24T18:51:12;97144.00;;;13.80
15062;BMP180;7630;50.306;8.566;2023-04-24T18:55:13;97144.00;;;13.80
15062;BMP180;7630;50.306;8.566;2023-04-24T18:59:14;97155.00;;;13.60
15062;BMP180;7630;50.306;8.566;2023-04-24T19:03:15;97162.00;;;12.90
15062;BMP180;7630;50.306;8.566;2023-04-24T19:07:17;97168.00;;;12.30
15062;BMP180;7630;50.306;8.566;2023-04-24T19:11:19;97140.00;;;11.30
15062;BMP180;7630;50.306;8.566;2023-04-24T19:15:22;97176.00;;;10.30
15062;BMP180;7630;50.306;8.566;2023-04-24T19:19:23;97186.00;;;9.60
15062;BMP180;7630;50.306;8.566;2023-04-24T19:23:26;97185.00;;;9.60
15062;BMP180;7630;50.306;8.566;2023-04-24T19:27:27;97183.00;;;10.20
15062;BMP180;7630;50.306;8.566;2023-04-24T19:31:28;97178.00;;;11.10
15062;BMP180;7630;50.306;8.566;2023-04-24T19:35:29;97182.00;;;11.30
15062;BMP180;7630;50.306;8.566;2023-04-24T19:39:30;97180.00;;;11.40
15062;BMP180;7630;50.306;8.566;2023-04-24T19:43:32;97179.00;;;11.40
15062;BMP180;7630;50.306;8.566;2023-04-24T19:47:33;97180.00;;;11.50
15062;BMP180;7630;50.306;8.566;2023-04-24T19:51:34;97183.00;;;11.10
15062;BMP180;7630;50.306;8.566;2023-04-24T19:55:36;97179.00;;;11.00
15062;BMP180;7630;50.306;8.566;2023-04-24T19:59:37;97182.00;;;11.50
15062;BMP180;7630;50.306;8.566;2023-04-24T20:03:38;97184.00;;;11.40
15062;BMP180;7630;50.306;8.566;2023-04-24T20:07:39;97173.00;;;11.40
15062;BMP180;7630;50.306;8.566;2023-04-24T20:11:41;97173.00;;;11.30
15062;BMP180;7630;50.306;8.566;2023-04-24T20:15:43;97165.00;;;11.40
15062;BMP180;7630;50.306;8.566;2023-04-24T20:19:45;97161.00;;;11.40
15062;BMP180;7630;50.306;8.566;2023-04-24T20:23:46;97163.00;;;11.70
15062;BMP180;7630;50.306;8.566;2023-04-24T20:27:47;97169.00;;;11.90
15062;BMP180;7630;50.306;8.566;2023-04-24T20:31:49;97169.00;;;12.50
15062;BMP180;7630;50.306;8.566;2023-04-24T20:35:50;97151.00;;;12.50
15062;BMP180;7630;50.306;8.566;2023-04-24T20:39:52;97176.00;;;11.90
15062;BMP180;7630;50.306;8.566;2023-04-24T20:43:53;97176.00;;;12.10
15062;BMP180;7630;50.306;8.566;2023-04-24T20:47:54;97174.00;;;11.60
15062;BMP180;7630;50.306;8.566;2023-04-24T20:51:55;97167.00;;;12.30
15062;BMP180;7630;50.306;8.566;2023-04-24T20:55:58;97172.00;;;12.20
15062;BMP180;7630;50.306;8.566;2023-04-24T20:59:59;97167.00;;;12.50
15062;BMP180;7630;50.306;8.566;2023-04-24T21:04:00;97162.00;;;12.00
15062;BMP180;7630;50.306;8.566;2023-04-24T21:08:01;97156.00;;;12.00
15062;BMP180;7630;50.306;8.566;2023-04-24T21:12:03;97163.00;;;12.30
15062;BMP180;7630;50.306;8.566;2023-04-24T21:16:04;97149.00;;;12.10
15062;BMP180;7630;50.306;8.566;2023-04-24T21:20:07;97151.00;;;11.80
15062;BMP180;7630;50.306;8.566;2023-04-24T21:24:08;97162.00;;;11.50
15062;BMP180;7630;50.306;8.566;2023-04-24T21:28:09;97161.00;;;12.00
15062;BMP180;7630;50.306;8.566;2023-04-24T21:32:11;97159.00;;;11.90
15062;BMP180;7630;50.306;8.566;2023-04-24T21:36:12;97156.00;;;12.30
15062;BMP180;7630;50.306;8.566;2023-04-24T21:40:13;97153.00;;;12.10
15062;BMP180;7630;50.306;8.566;2023-04-24T21:44:15;97149.00;;;12.00
15062;BMP180;7630;50.306;8.566;2023-04-24T21:48:16;97149.00;;;12.10
15062;BMP180;7630;50.306;8.566;2023-04-24T21:52:17;97138.00;;;11.90
15062;BMP180;7630;50.306;8.566;2023-04-24T21:56:18;97142.00;;;11.90
15062;BMP180;7630;50.306;8.566;2023-04-24T22:00:19;97138.00;;;11.50
15062;BMP180;7630;50.306;8.566;2023-04-24T22:04:21;97142.00;;;10.70
15062;BMP180;7630;50.306;8.566;2023-04-24T22:08:23;97145.00;;;11.40
15062;BMP180;7630;50.306;8.566;2023-04-24T22:12:24;97140.00;;;11.40
15062;BMP180;7630;50.306;8.566;2023-04-24T22:16:26;97145.00;;;11.40
15062;BMP180;7630;50.306;8.566;2023-04-24T22:20:29;97144.00;;;11.60
15062;BMP180;7630;50.306;8.566;2023-04-24T22:24:30;97139.00;;;11.20
15062;BMP180;7630;50.306;8.566;2023-04-24T22:28:31;97148.00;;;11.60
15062;BMP180;7630;50.306;8.566;2023-04-24T22:32:32;97147.00;;;11.80
15062;BMP180;7630;50.306;8.566;2023-04-24T22:36:34;97142.00;;;11.10
15062;BMP180;7630;50.306;8.566;2023-04-24T22:40:35;97143.00;;;11.60
15062;BMP180;7630;50.306;8.566;2023-04-24T22:44:36;97132.00;;;10.70
15062;BMP180;7630;50.306;8.566;2023-04-24T22:48:37;97136.00;;;9.90
15062;BMP180;7630;50.306;8.566;2023-04-24T22:52:39;97139.00;;;10.20
15062;BMP180;7630;50.306;8.566;2023-04-24T22:56:41;97136.00;;;10.50
15062;BMP180;7630;50.306;8.566;2023-04-24T23:00:43;97124.00;;;10.60
15062;BMP180;7630;50.306;8.566;2023-04-24T23:04:44;97125.00;;;10.70
15062;BMP180;7630;50.306;8.566;2023-04-24T23:08:45;97125.00;;;11.10
15062;BMP180;7630;50.306;8.566;2023-04-24T23:12:46;97121.00;;;10.60
15062;BMP180;7630;50.306;8.566;2023-04-24T23:16:48;97127.00;;;10.60
15062;BMP180;7630;50.306;8.566;2023-04-24T23:20:49;97141.00;;;11.40
15062;BMP180;7630;50.306;8.566;2023-04-24T23:24:50;97138.00;;;11.10
15062;BMP180;7630;50.306;8.566;2023-04-24T23:28:51;97135.00;;;11.30
15062;BMP180;7630;50.306;8.566;2023-04-24T23:32:53;97135.00;;;11.40
15062;BMP180;7630;50.306;8.566;2023-04-24T23:36:54;97147.00;;;11.60
15062;BMP180;7630;50.306;8.566;2023-04-24T23:40:55;97124.00;;;11.00